Time;durP1;ratioP1;P1;durP2;ratioP2;P2;SDS_P1;SDS_P2;PMS_P1;PMS_P2;Temp;Humidity;BMP_temperature;BMP_pressure;BME280_temperature;BME280_humidity;BME280_pressure;Samples;Min_cycle;Max_cycle;Signal;HPM_P1;HPM_P2
2023/12/07 00:01:03;;;;;;;;;;;11.60;93.30;;;;;;5091727;28;19908;-77
2023/12/07 00:03:29;;;;;;;;;;;11.60;93.30;;;;;;5091723;28;20263;-77
2023/12/07 00:05:54;;;;;;;;;;;11.60;93.30;;;;;;5073792;28;19908;-77
2023/12/07 00:08:20;;;;;;;;;;;11.70;93.30;;;;;;5091541;28;20002;-77
2023/12/07 00:10:45;;;;;;;;;;;11.60;93.20;;;;;;5073587;28;19935;-77
2023/12/07 00:13:11;;;;;;;;;;;11.60;93.30;;;;;;5091498;28;19916;-77
2023/12/07 00:15:36;;;;;;;;;;;11.60;93.30;;;;;;5073695;28;19998;-77
2023/12/07 00:18:03;;;;;;;;;;;11.60;93.30;;;;;;5091816;28;20375;-77
2023/12/07 00:20:29;;;;;;;;;;;11.60;93.30;;;;;;5091557;28;19904;-77
2023/12/07 00:22:55;;;;;;;;;;;11.60;93.30;;;;;;5073385;28;19904;-77
2023/12/07 00:25:21;;;;;;;;;;;11.60;93.30;;;;;;5073327;28;19978;-76
2023/12/07 00:27:47;;;;;;;;;;;11.60;93.30;;;;;;5091473;28;19904;-76
2023/12/07 00:30:13;;;;;;;;;;;11.60;93.30;;;;;;5092072;28;20288;-76
2023/12/07 00:32:40;;;;;;;;;;;11.60;93.20;;;;;;5073525;28;19916;-77
2023/12/07 00:35:05;;;;;;;;;;;11.60;93.30;;;;;;5091677;28;19927;-76
2023/12/07 00:37:31;;;;;;;;;;;11.60;93.30;;;;;;5073330;28;19912;-77
2023/12/07 00:39:56;;;;;;;;;;;11.60;93.30;;;;;;5056686;28;19908;-77
2023/12/07 00:42:22;;;;;;;;;;;11.60;93.30;;;;;;5091490;28;20199;-76
2023/12/07 00:44:47;;;;;;;;;;;11.60;93.30;;;;;;5094162;28;19961;-77
2023/12/07 00:47:13;;;;;;;;;;;11.60;93.30;;;;;;5077246;28;20472;-76
2023/12/07 00:49:41;;;;;;;;;;;11.60;93.30;;;;;;5060367;28;20257;-76
2023/12/07 00:52:07;;;;;;;;;;;11.60;93.30;;;;;;5060714;28;19919;-77
2023/12/07 00:54:33;;;;;;;;;;;11.60;93.30;;;;;;5095075;28;19912;-77
2023/12/07 00:56:58;;;;;;;;;;;11.60;93.30;;;;;;5094805;28;20379;-76
2023/12/07 00:59:24;;;;;;;;;;;11.60;93.30;;;;;;5076847;28;20295;-77
2023/12/07 01:01:50;;;;;;;;;;;11.60;93.30;;;;;;5095100;28;19915;-77
2023/12/07 01:04:16;;;;;;;;;;;11.60;93.30;;;;;;5094864;28;19908;-77
2023/12/07 01:06:42;;;;;;;;;;;11.60;93.30;;;;;;5076717;28;19962;-77
2023/12/07 01:09:12;;;;;;;;;;;11.70;93.30;;;;;;5076748;28;20356;-77
2023/12/07 01:11:40;;;;;;;;;;;11.60;93.30;;;;;;5094676;28;19911;-77
2023/12/07 01:14:05;;;;;;;;;;;11.70;93.30;;;;;;5094746;28;19999;-77
2023/12/07 01:16:31;;;;;;;;;;;11.70;93.30;;;;;;5094870;28;20419;-77
2023/12/07 01:18:57;;;;;;;;;;;11.60;93.30;;;;;;5076402;28;19913;-77
2023/12/07 01:21:23;;;;;;;;;;;11.70;93.30;;;;;;5094659;28;20252;-77
2023/12/07 01:23:49;;;;;;;;;;;11.70;93.30;;;;;;5076519;28;19908;-77
2023/12/07 01:26:14;;;;;;;;;;;11.60;93.30;;;;;;5076140;28;19920;-77
2023/12/07 01:28:40;;;;;;;;;;;11.60;93.30;;;;;;5076534;28;19914;-77
2023/12/07 01:31:06;;;;;;;;;;;11.60;93.30;;;;;;5094682;28;19908;-77
2023/12/07 01:33:31;;;;;;;;;;;11.60;93.30;;;;;;5094484;28;19912;-77
2023/12/07 01:35:57;;;;;;;;;;;11.60;93.30;;;;;;5076289;28;19912;-77
2023/12/07 01:38:22;;;;;;;;;;;11.60;93.30;;;;;;5076089;28;19908;-77
2023/12/07 01:40:48;;;;;;;;;;;11.60;93.30;;;;;;5076117;28;19943;-77
2023/12/07 01:43:14;;;;;;;;;;;11.60;93.30;;;;;;5076289;28;19919;-76
2023/12/07 01:45:39;;;;;;;;;;;11.60;93.20;;;;;;5076096;28;20360;-76
2023/12/07 01:48:06;;;;;;;;;;;11.60;93.20;;;;;;5093919;28;19994;-76
2023/12/07 01:50:33;;;;;;;;;;;11.50;93.20;;;;;;5075729;28;19970;-76
2023/12/07 01:53:01;;;;;;;;;;;11.60;93.30;;;;;;5075874;28;19919;-77
2023/12/07 01:55:27;;;;;;;;;;;11.60;93.30;;;;;;5092750;28;19908;-76
2023/12/07 01:57:53;;;;;;;;;;;11.60;93.30;;;;;;5093863;28;19904;-77
2023/12/07 02:00:19;;;;;;;;;;;11.60;93.30;;;;;;5059184;28;19927;-77
2023/12/07 02:02:45;;;;;;;;;;;11.60;93.30;;;;;;5093955;28;20407;-76
2023/12/07 02:05:12;;;;;;;;;;;11.70;93.30;;;;;;5075785;28;20113;-76
2023/12/07 02:07:39;;;;;;;;;;;11.60;93.20;;;;;;5093593;28;19931;-76
2023/12/07 02:10:04;;;;;;;;;;;11.60;93.30;;;;;;5093587;28;19908;-77
2023/12/07 02:12:30;;;;;;;;;;;11.70;93.30;;;;;;5093451;28;19915;-77
2023/12/07 02:14:56;;;;;;;;;;;11.60;93.30;;;;;;5058733;28;20279;-77
2023/12/07 02:17:26;;;;;;;;;;;11.60;93.20;;;;;;5093395;28;19912;-76
2023/12/07 02:19:52;;;;;;;;;;;11.60;93.20;;;;;;5093446;28;19911;-76
2023/12/07 02:22:24;;;;;;;;;;;11.60;93.20;;;;;;5093365;28;19904;-76
2023/12/07 02:25:04;;;;;;;;;;;11.50;93.10;;;;;;5074831;28;20380;-76
2023/12/07 02:27:36;;;;;;;;;;;11.50;93.10;;;;;;5093073;28;19908;-76
2023/12/07 02:30:02;;;;;;;;;;;11.40;93.20;;;;;;5093132;28;19962;-76
2023/12/07 02:32:28;;;;;;;;;;;11.50;93.30;;;;;;5093408;28;20310;-76
2023/12/07 02:34:54;;;;;;;;;;;11.50;93.30;;;;;;5093283;28;19912;-76
2023/12/07 02:37:21;;;;;;;;;;;11.50;93.30;;;;;;5075148;28;19904;-76
2023/12/07 02:39:47;;;;;;;;;;;11.50;93.30;;;;;;5093086;28;19908;-76
2023/12/07 02:42:13;;;;;;;;;;;11.60;93.30;;;;;;5074984;28;19911;-76
2023/12/07 02:44:39;;;;;;;;;;;11.70;93.30;;;;;;5074759;28;19943;-76
2023/12/07 02:47:05;;;;;;;;;;;11.70;93.20;;;;;;5074919;28;19958;-76
2023/12/07 02:49:31;;;;;;;;;;;11.70;93.20;;;;;;5074635;28;20011;-76
2023/12/07 02:51:56;;;;;;;;;;;11.70;93.20;;;;;;5074643;28;19904;-76
2023/12/07 02:54:22;;;;;;;;;;;11.70;93.20;;;;;;5074811;28;19942;-76
2023/12/07 02:56:48;;;;;;;;;;;11.70;93.20;;;;;;5074510;28;19911;-76
2023/12/07 02:59:13;;;;;;;;;;;11.70;93.20;;;;;;5092634;28;19916;-76
2023/12/07 03:01:39;;;;;;;;;;;11.70;93.30;;;;;;5092552;28;20474;-76
2023/12/07 03:04:05;;;;;;;;;;;11.70;93.30;;;;;;5057761;28;19932;-76
2023/12/07 03:06:30;;;;;;;;;;;11.70;93.30;;;;;;5074347;28;19908;-76
2023/12/07 03:08:56;;;;;;;;;;;11.70;93.30;;;;;;5092550;28;19908;-76
2023/12/07 03:11:21;;;;;;;;;;;11.70;93.30;;;;;;5092494;28;19912;-76
2023/12/07 03:13:47;;;;;;;;;;;11.70;93.30;;;;;;5074377;28;20392;-76
2023/12/07 03:16:13;;;;;;;;;;;11.70;93.30;;;;;;5074367;28;20428;-76
2023/12/07 03:18:38;;;;;;;;;;;11.70;93.30;;;;;;5074217;28;19931;-76
2023/12/07 03:21:04;;;;;;;;;;;11.80;93.30;;;;;;5074325;28;19930;-76
2023/12/07 03:23:29;;;;;;;;;;;11.80;93.30;;;;;;5092441;28;19912;-76
2023/12/07 03:25:55;;;;;;;;;;;11.90;93.30;;;;;;5074167;28;19920;-76
2023/12/07 03:28:21;;;;;;;;;;;11.90;93.30;;;;;;5057580;28;19916;-76
2023/12/07 03:30:46;;;;;;;;;;;11.90;93.30;;;;;;5092226;28;19915;-76
2023/12/07 03:33:12;;;;;;;;;;;12.00;93.30;;;;;;5092165;28;19912;-76
2023/12/07 03:35:38;;;;;;;;;;;12.00;93.30;;;;;;5073887;28;19934;-76
2023/12/07 03:38:03;;;;;;;;;;;12.00;93.30;;;;;;5074141;28;20359;-76
2023/12/07 03:40:29;;;;;;;;;;;12.00;93.30;;;;;;5092334;28;20350;-76
2023/12/07 03:42:54;;;;;;;;;;;12.10;93.30;;;;;;5092137;28;19911;-76
2023/12/07 03:45:20;;;;;;;;;;;12.10;93.30;;;;;;5073826;28;20371;-76
2023/12/07 03:47:45;;;;;;;;;;;12.10;93.30;;;;;;5092100;28;19947;-76
2023/12/07 03:50:11;;;;;;;;;;;12.10;93.30;;;;;;5092291;28;19919;-76
2023/12/07 03:52:37;;;;;;;;;;;12.10;93.30;;;;;;5057232;28;19916;-76
2023/12/07 03:55:02;;;;;;;;;;;12.10;93.20;;;;;;5092419;28;19910;-76
2023/12/07 03:57:28;;;;;;;;;;;12.00;93.20;;;;;;5057183;28;20326;-76
2023/12/07 03:59:53;;;;;;;;;;;12.00;93.20;;;;;;5073653;28;20534;-76
2023/12/07 04:02:19;;;;;;;;;;;12.00;93.30;;;;;;5073896;28;20370;-76
2023/12/07 04:04:45;;;;;;;;;;;12.00;93.30;;;;;;5092054;28;20328;-76
2023/12/07 04:07:10;;;;;;;;;;;12.00;93.30;;;;;;5091753;28;19931;-76
2023/12/07 04:09:36;;;;;;;;;;;12.00;93.30;;;;;;5092041;28;19904;-76
2023/12/07 04:12:01;;;;;;;;;;;12.00;93.50;;;;;;5091901;28;19908;-76
2023/12/07 04:14:27;;;;;;;;;;;12.00;93.30;;;;;;5092004;28;19921;-76
2023/12/07 04:16:53;;;;;;;;;;;12.10;93.30;;;;;;5073957;28;19935;-76
2023/12/07 04:19:19;;;;;;;;;;;12.10;93.30;;;;;;5093904;28;19904;-76
2023/12/07 04:21:44;;;;;;;;;;;12.10;93.30;;;;;;5078036;28;19912;-76
2023/12/07 04:24:10;;;;;;;;;;;12.10;93.30;;;;;;5077956;28;20396;-76
2023/12/07 04:26:35;;;;;;;;;;;12.10;93.30;;;;;;5095877;28;19920;-76
2023/12/07 04:29:01;;;;;;;;;;;12.20;93.30;;;;;;5095878;28;19958;-76
2023/12/07 04:31:26;;;;;;;;;;;12.20;93.20;;;;;;5077683;28;20275;-76
2023/12/07 04:33:52;;;;;;;;;;;12.20;93.20;;;;;;5095675;28;19994;-75
2023/12/07 04:36:17;;;;;;;;;;;12.20;93.20;;;;;;5077486;28;19908;-76
2023/12/07 04:38:43;;;;;;;;;;;12.20;93.20;;;;;;5095417;28;20349;-76
2023/12/07 04:41:09;;;;;;;;;;;12.20;93.20;;;;;;5077664;28;19915;-75
2023/12/07 04:43:34;;;;;;;;;;;12.20;93.20;;;;;;5095609;28;19919;-75
2023/12/07 04:46:00;;;;;;;;;;;12.10;93.00;;;;;;5077155;28;19912;-76
2023/12/07 04:48:25;;;;;;;;;;;12.00;93.00;;;;;;5095348;28;19946;-76
2023/12/07 04:50:51;;;;;;;;;;;11.90;93.10;;;;;;5077086;28;19908;-76
2023/12/07 04:53:17;;;;;;;;;;;11.80;93.10;;;;;;5095101;28;20027;-76
2023/12/07 04:55:47;;;;;;;;;;;11.70;93.10;;;;;;5095350;28;19908;-76
2023/12/07 04:58:13;;;;;;;;;;;11.70;93.20;;;;;;5094821;28;20307;-76
2023/12/07 05:00:38;;;;;;;;;;;11.60;93.20;;;;;;5076913;28;19914;-76
2023/12/07 05:03:04;;;;;;;;;;;11.60;93.30;;;;;;5095140;28;19947;-76
2023/12/07 05:05:29;;;;;;;;;;;11.70;93.30;;;;;;5076784;28;19914;-76
2023/12/07 05:07:55;;;;;;;;;;;11.70;93.40;;;;;;5096781;28;19912;-77
2023/12/07 05:10:21;;;;;;;;;;;11.70;93.30;;;;;;5096767;28;20274;-76
2023/12/07 05:12:46;;;;;;;;;;;11.80;93.30;;;;;;5077189;28;19912;-77
2023/12/07 05:15:12;;;;;;;;;;;11.90;93.30;;;;;;5076838;28;20000;-77
2023/12/07 05:17:38;;;;;;;;;;;11.90;93.30;;;;;;5094831;28;19914;-76
2023/12/07 05:20:05;;;;;;;;;;;11.90;93.20;;;;;;5076650;28;20003;-76
2023/12/07 05:22:30;;;;;;;;;;;11.90;93.20;;;;;;5094881;28;19908;-76
2023/12/07 05:24:56;;;;;;;;;;;11.90;93.20;;;;;;5073090;28;20284;-76
2023/12/07 05:27:21;;;;;;;;;;;11.90;93.20;;;;;;5074440;28;19923;-77
2023/12/07 05:29:47;;;;;;;;;;;11.80;93.20;;;;;;5073417;28;19915;-76
2023/12/07 05:32:13;;;;;;;;;;;11.70;93.20;;;;;;5074389;28;20035;-76
2023/12/07 05:34:38;;;;;;;;;;;11.70;93.20;;;;;;5074341;28;19912;-76
2023/12/07 05:37:04;;;;;;;;;;;11.70;93.20;;;;;;5074475;28;20034;-76
2023/12/07 05:39:30;;;;;;;;;;;11.70;93.30;;;;;;5073124;28;19915;-76
2023/12/07 05:41:55;;;;;;;;;;;11.70;93.30;;;;;;5072997;28;19916;-76
2023/12/07 05:44:22;;;;;;;;;;;11.70;93.30;;;;;;5073125;28;20279;-76
2023/12/07 05:46:48;;;;;;;;;;;11.70;93.30;;;;;;5072394;28;19912;-76
2023/12/07 05:49:14;;;;;;;;;;;11.70;93.30;;;;;;5072510;28;19909;-76
2023/12/07 05:51:39;;;;;;;;;;;11.70;93.20;;;;;;5072408;28;19992;-77
2023/12/07 05:54:05;;;;;;;;;;;11.70;93.20;;;;;;5072444;28;20318;-76
2023/12/07 05:56:31;;;;;;;;;;;11.60;93.20;;;;;;5073666;28;20319;-76
2023/12/07 05:58:56;;;;;;;;;;;11.50;93.20;;;;;;5073884;28;19908;-76
2023/12/07 06:01:24;;;;;;;;;;;11.50;93.30;;;;;;5072514;28;20007;-76
2023/12/07 06:03:50;;;;;;;;;;;11.50;93.30;;;;;;5073437;28;19908;-76
2023/12/07 06:06:15;;;;;;;;;;;11.40;93.30;;;;;;5072297;28;19931;-76
2023/12/07 06:08:41;;;;;;;;;;;11.40;93.30;;;;;;5073698;28;20280;-76
2023/12/07 06:11:07;;;;;;;;;;;11.40;93.20;;;;;;5072581;28;19916;-76
2023/12/07 06:13:33;;;;;;;;;;;11.40;93.20;;;;;;5073637;28;19912;-77
2023/12/07 06:15:59;;;;;;;;;;;11.30;93.30;;;;;;5073759;28;20352;-77
2023/12/07 06:18:25;;;;;;;;;;;11.30;93.30;;;;;;5073475;28;19915;-76
2023/12/07 06:20:50;;;;;;;;;;;11.30;93.30;;;;;;5073415;28;20135;-76
2023/12/07 06:23:16;;;;;;;;;;;11.30;93.30;;;;;;5071919;28;19912;-76
2023/12/07 06:25:41;;;;;;;;;;;11.30;93.20;;;;;;5084036;28;19923;-76
2023/12/07 06:28:07;;;;;;;;;;;11.30;93.30;;;;;;5093348;28;20352;-76
2023/12/07 06:30:33;;;;;;;;;;;11.30;93.30;;;;;;5093382;28;20374;-76
2023/12/07 06:32:58;;;;;;;;;;;11.40;93.20;;;;;;5093585;28;19951;-77
2023/12/07 06:35:24;;;;;;;;;;;11.40;93.20;;;;;;5093442;28;20387;-76
2023/12/07 06:37:49;;;;;;;;;;;11.40;93.30;;;;;;5058527;28;20360;-76
2023/12/07 06:40:15;;;;;;;;;;;11.50;93.30;;;;;;5075415;28;19908;-76
2023/12/07 06:42:40;;;;;;;;;;;11.50;93.30;;;;;;5092933;28;19912;-76
2023/12/07 06:45:10;;;;;;;;;;;11.60;93.30;;;;;;5093248;28;19908;-76
2023/12/07 06:47:39;;;;;;;;;;;11.70;93.30;;;;;;5074742;28;19911;-76
2023/12/07 06:50:08;;;;;;;;;;;11.70;93.30;;;;;;5093100;28;20264;-76
2023/12/07 06:52:33;;;;;;;;;;;11.80;93.30;;;;;;5074802;28;20315;-76
2023/12/07 06:54:59;;;;;;;;;;;11.80;93.30;;;;;;5074841;28;19954;-76
2023/12/07 06:57:25;;;;;;;;;;;11.90;93.30;;;;;;5075052;28;20395;-77
2023/12/07 06:59:50;;;;;;;;;;;11.90;93.30;;;;;;5074786;28;19912;-76
2023/12/07 07:02:16;;;;;;;;;;;11.90;93.30;;;;;;5074818;28;20351;-76
2023/12/07 07:04:41;;;;;;;;;;;11.90;93.20;;;;;;5074812;28;19908;-76
2023/12/07 07:07:07;;;;;;;;;;;12.00;93.30;;;;;;5092684;28;20367;-76
2023/12/07 07:09:32;;;;;;;;;;;12.00;93.30;;;;;;5075533;28;19908;-76
2023/12/07 07:11:58;;;;;;;;;;;12.00;93.30;;;;;;5057533;28;19912;-76
2023/12/07 07:14:24;;;;;;;;;;;12.00;93.30;;;;;;5092785;28;19912;-76
2023/12/07 07:16:49;;;;;;;;;;;12.00;93.30;;;;;;5092492;28;20363;-76
2023/12/07 07:19:16;;;;;;;;;;;12.10;93.40;;;;;;5074604;28;19930;-76
2023/12/07 07:21:42;;;;;;;;;;;12.10;93.40;;;;;;5074779;28;19977;-76
2023/12/07 07:24:07;;;;;;;;;;;12.10;93.40;;;;;;5092760;28;20379;-76
2023/12/07 07:26:33;;;;;;;;;;;12.20;93.50;;;;;;5057582;28;19962;-76
2023/12/07 07:28:59;;;;;;;;;;;12.30;93.50;;;;;;5092497;28;19908;-76
2023/12/07 07:31:24;;;;;;;;;;;12.30;93.50;;;;;;5057692;28;20374;-76
2023/12/07 07:33:50;;;;;;;;;;;12.40;93.50;;;;;;5074460;28;20386;-76
2023/12/07 07:36:16;;;;;;;;;;;12.50;93.50;;;;;;5092268;28;20314;-76
2023/12/07 07:38:42;;;;;;;;;;;12.60;93.50;;;;;;5057277;28;19946;-76
2023/12/07 07:41:07;;;;;;;;;;;12.60;93.50;;;;;;5074046;28;20360;-76
2023/12/07 07:43:34;;;;;;;;;;;12.70;93.50;;;;;;5092238;28;19957;-76
2023/12/07 07:46:00;;;;;;;;;;;12.70;93.40;;;;;;5073870;28;19912;-76
2023/12/07 07:48:26;;;;;;;;;;;12.80;93.40;;;;;;5073983;28;20356;-76
2023/12/07 07:50:51;;;;;;;;;;;12.80;93.40;;;;;;5091744;28;19920;-76
2023/12/07 07:53:17;;;;;;;;;;;12.80;93.40;;;;;;5090971;28;19969;-77
2023/12/07 07:55:42;;;;;;;;;;;12.80;93.40;;;;;;5076264;28;19912;-76
2023/12/07 07:58:08;;;;;;;;;;;12.80;93.40;;;;;;5091272;28;20088;-76
2023/12/07 08:00:34;;;;;;;;;;;12.80;93.40;;;;;;5073013;28;19946;-76
2023/12/07 08:02:59;;;;;;;;;;;12.80;93.40;;;;;;5074060;28;19936;-77
2023/12/07 08:05:25;;;;;;;;;;;12.80;93.40;;;;;;5073652;28;19912;-76
2023/12/07 08:07:51;;;;;;;;;;;12.80;93.40;;;;;;5091609;28;20008;-76
2023/12/07 08:10:16;;;;;;;;;;;12.80;93.50;;;;;;5091756;28;19954;-76
2023/12/07 08:12:42;;;;;;;;;;;12.80;93.50;;;;;;5073663;28;19908;-77
2023/12/07 08:15:10;;;;;;;;;;;12.80;93.50;;;;;;5091800;28;20007;-76
2023/12/07 08:17:37;;;;;;;;;;;12.80;93.50;;;;;;5091715;28;20249;-76
2023/12/07 08:20:03;;;;;;;;;;;12.90;93.50;;;;;;5073474;28;19962;-76
2023/12/07 08:22:29;;;;;;;;;;;12.90;93.50;;;;;;5073918;28;19916;-76
2023/12/07 08:24:54;;;;;;;;;;;12.90;93.50;;;;;;5073233;28;19922;-76
2023/12/07 08:27:20;;;;;;;;;;;12.90;93.50;;;;;;5091418;28;19947;-75
2023/12/07 08:29:46;;;;;;;;;;;12.90;93.40;;;;;;5091403;28;19999;-75
2023/12/07 08:32:12;;;;;;;;;;;12.90;93.50;;;;;;5073155;28;19908;-76
2023/12/07 08:34:37;;;;;;;;;;;12.90;93.50;;;;;;5091559;28;19998;-76
2023/12/07 08:37:03;;;;;;;;;;;12.90;93.50;;;;;;5055966;28;20249;-76
2023/12/07 08:39:29;;;;;;;;;;;13.00;93.50;;;;;;5091118;28;19955;-76
2023/12/07 08:41:54;;;;;;;;;;;13.00;93.50;;;;;;5073353;28;19916;-76
2023/12/07 08:44:20;;;;;;;;;;;13.00;93.50;;;;;;5091676;28;20374;-75
2023/12/07 08:46:46;;;;;;;;;;;13.00;93.50;;;;;;5056899;28;19915;-75
2023/12/07 08:49:11;;;;;;;;;;;13.00;93.50;;;;;;5090948;28;20274;-76
2023/12/07 08:51:37;;;;;;;;;;;13.00;93.50;;;;;;5073635;28;19912;-74
2023/12/07 08:54:03;;;;;;;;;;;13.10;93.50;;;;;;5072584;28;19912;-76
2023/12/07 08:56:28;;;;;;;;;;;13.00;93.40;;;;;;5073168;28;19913;-75
2023/12/07 08:58:54;;;;;;;;;;;13.10;93.50;;;;;;5091210;28;20278;-76
2023/12/07 09:01:19;;;;;;;;;;;13.10;93.50;;;;;;5090613;28;19976;-76
2023/12/07 09:03:45;;;;;;;;;;;13.10;93.40;;;;;;5091243;28;20252;-76
2023/12/07 09:06:11;;;;;;;;;;;13.10;93.40;;;;;;5094051;28;19980;-76
2023/12/07 09:08:36;;;;;;;;;;;13.10;93.40;;;;;;5095372;28;20376;-75
2023/12/07 09:11:03;;;;;;;;;;;13.10;93.40;;;;;;5095200;28;19904;-74
2023/12/07 09:13:29;;;;;;;;;;;13.10;93.40;;;;;;5094886;28;20471;-74
2023/12/07 09:15:54;;;;;;;;;;;13.10;93.40;;;;;;5095113;28;20007;-73
2023/12/07 09:18:20;;;;;;;;;;;13.10;93.40;;;;;;5095150;28;20315;-75
2023/12/07 09:20:45;;;;;;;;;;;13.10;93.40;;;;;;5095057;28;19916;-75
2023/12/07 09:23:12;;;;;;;;;;;13.10;93.50;;;;;;5096107;28;20279;-75
2023/12/07 09:25:38;;;;;;;;;;;13.00;93.40;;;;;;5095838;28;20392;-75
2023/12/07 09:28:04;;;;;;;;;;;13.00;93.40;;;;;;5077398;28;19908;-76
2023/12/07 09:30:29;;;;;;;;;;;13.00;93.40;;;;;;5095049;28;19965;-75
2023/12/07 09:32:55;;;;;;;;;;;13.00;93.40;;;;;;5094384;28;20319;-75
2023/12/07 09:35:21;;;;;;;;;;;13.00;93.50;;;;;;5096061;28;19961;-75
2023/12/07 09:37:48;;;;;;;;;;;12.90;93.40;;;;;;5095662;28;19908;-75
2023/12/07 09:40:19;;;;;;;;;;;13.00;93.50;;;;;;5095366;28;19908;-75
2023/12/07 09:42:48;;;;;;;;;;;13.00;93.50;;;;;;5096075;28;19904;-75
2023/12/07 09:45:16;;;;;;;;;;;12.90;93.40;;;;;;5095388;28;19908;-70
2023/12/07 09:47:42;;;;;;;;;;;12.90;93.40;;;;;;5095353;28;19912;-75
2023/12/07 09:50:08;;;;;;;;;;;12.90;93.50;;;;;;5095643;28;19908;-75
2023/12/07 09:52:34;;;;;;;;;;;13.00;93.50;;;;;;5094636;28;19926;-75
2023/12/07 09:55:02;;;;;;;;;;;13.00;93.60;;;;;;5100725;28;19908;-75
2023/12/07 09:57:27;;;;;;;;;;;13.10;93.60;;;;;;5094786;28;19911;-75
2023/12/07 09:59:53;;;;;;;;;;;13.10;93.60;;;;;;5078999;28;21698;-75
2023/12/07 10:02:18;;;;;;;;;;;13.20;93.60;;;;;;5108991;28;19908;-75
2023/12/07 10:04:44;;;;;;;;;;;13.20;93.50;;;;;;5106578;28;19941;-75
2023/12/07 10:07:09;;;;;;;;;;;13.20;93.60;;;;;;5115964;28;19935;-75
2023/12/07 10:09:39;;;;;;;;;;;13.30;93.70;;;;;;5115209;28;19912;-75
2023/12/07 10:12:05;;;;;;;;;;;13.40;93.70;;;;;;5115433;28;19912;-76
2023/12/07 10:14:30;;;;;;;;;;;13.50;93.80;;;;;;5115211;28;19912;-67
2023/12/07 10:16:56;;;;;;;;;;;13.60;93.70;;;;;;5113894;28;19930;-75
2023/12/07 10:19:22;;;;;;;;;;;13.70;93.70;;;;;;5100603;28;19912;-75
2023/12/07 10:21:49;;;;;;;;;;;13.70;93.70;;;;;;5076679;28;19991;-75
2023/12/07 10:24:15;;;;;;;;;;;13.80;93.70;;;;;;5088698;28;20700;-75
2023/12/07 10:26:42;;;;;;;;;;;13.80;93.70;;;;;;5115142;28;19920;-75
2023/12/07 10:29:08;;;;;;;;;;;13.90;93.70;;;;;;5087750;28;19904;-75
2023/12/07 10:31:34;;;;;;;;;;;13.90;93.70;;;;;;5094473;28;20262;-75
2023/12/07 10:34:00;;;;;;;;;;;14.00;93.70;;;;;;5112407;28;19998;-75
2023/12/07 10:36:25;;;;;;;;;;;14.00;93.90;;;;;;5114428;28;20597;-75
2023/12/07 10:38:51;;;;;;;;;;;14.10;93.70;;;;;;5096325;28;19960;-75
2023/12/07 10:41:18;;;;;;;;;;;14.10;93.70;;;;;;5114813;28;19911;-75
2023/12/07 10:43:48;;;;;;;;;;;14.10;93.70;;;;;;5114840;28;20367;-75
2023/12/07 10:46:18;;;;;;;;;;;14.20;93.70;;;;;;5114649;28;20393;-75
2023/12/07 10:48:54;;;;;;;;;;;14.20;93.70;;;;;;5114587;28;19910;-75
2023/12/07 10:51:49;;;;;;;;;;;14.20;93.60;;;;;;5114575;28;20324;-75
2023/12/07 10:54:16;;;;;;;;;;;14.10;93.60;;;;;;5114641;28;20027;-75
2023/12/07 10:56:45;;;;;;;;;;;14.00;93.50;;;;;;5114203;28;19911;-76
2023/12/07 10:59:12;;;;;;;;;;;14.00;93.60;;;;;;5114501;28;19960;-77
2023/12/07 11:01:39;;;;;;;;;;;13.90;93.50;;;;;;5096128;28;19904;-72
2023/12/07 11:04:06;;;;;;;;;;;13.70;93.50;;;;;;5114842;28;19948;-76
2023/12/07 11:06:32;;;;;;;;;;;13.60;93.50;;;;;;5096109;28;19912;-77
2023/12/07 11:08:59;;;;;;;;;;;13.50;93.60;;;;;;5115023;28;19904;-77
2023/12/07 11:11:29;;;;;;;;;;;13.50;93.60;;;;;;5097082;28;19941;-79
2023/12/07 11:14:03;;;;;;;;;;;13.30;93.60;;;;;;5096052;28;19908;-77
2023/12/07 11:16:31;;;;;;;;;;;13.30;93.60;;;;;;5114212;28;19911;-78
2023/12/07 11:18:57;;;;;;;;;;;13.20;93.60;;;;;;5114537;28;19911;-80
2023/12/07 11:21:23;;;;;;;;;;;13.10;93.70;;;;;;5114717;28;20189;-78
2023/12/07 11:23:49;;;;;;;;;;;13.10;93.70;;;;;;5096299;28;19929;-76
2023/12/07 11:26:14;;;;;;;;;;;13.00;93.70;;;;;;5114131;28;19927;-73
2023/12/07 11:28:40;;;;;;;;;;;13.00;93.70;;;;;;5113892;28;19973;-75
2023/12/07 11:31:06;;;;;;;;;;;13.00;93.70;;;;;;5114066;28;20286;-75
2023/12/07 11:33:32;;;;;;;;;;;13.00;93.70;;;;;;5113888;28;19911;-75
2023/12/07 11:36:04;;;;;;;;;;;12.90;93.70;;;;;;5095656;28;20544;-77
2023/12/07 11:38:29;;;;;;;;;;;12.90;93.70;;;;;;5114206;28;19954;-75
2023/12/07 11:40:55;;;;;;;;;;;12.90;93.70;;;;;;5113138;28;19907;-74
2023/12/07 11:43:35;;;;;;;;;;;12.90;93.80;;;;;;5095344;28;20379;-74
2023/12/07 11:46:01;;;;;;;;;;;12.90;93.80;;;;;;5113431;28;19914;-76
2023/12/07 11:48:26;;;;;;;;;;;12.80;93.70;;;;;;5078461;28;20287;-78
2023/12/07 11:51:11;;;;;;;;;;;12.80;93.80;;;;;;5113692;28;19915;-74
2023/12/07 11:53:38;;;;;;;;;;;12.80;93.70;;;;;;5113248;28;19912;-75
2023/12/07 11:56:04;;;;;;;;;;;12.80;93.80;;;;;;5113278;28;19903;-76
2023/12/07 11:58:31;;;;;;;;;;;12.80;93.80;;;;;;5078132;28;19912;-76
2023/12/07 12:00:57;;;;;;;;;;;12.70;93.70;;;;;;5113644;28;19935;-77
2023/12/07 12:03:23;;;;;;;;;;;12.70;93.80;;;;;;5113727;28;19911;-73
2023/12/07 12:05:48;;;;;;;;;;;12.70;93.80;;;;;;5113216;28;19944;-74
2023/12/07 12:08:15;;;;;;;;;;;12.70;93.80;;;;;;5113684;28;19946;-77
2023/12/07 12:10:42;;;;;;;;;;;12.70;93.80;;;;;;5113063;28;19915;-77
2023/12/07 12:13:08;;;;;;;;;;;12.70;93.80;;;;;;5095466;28;20033;-77
2023/12/07 12:15:34;;;;;;;;;;;12.60;93.80;;;;;;5094968;28;19911;-77
2023/12/07 12:18:00;;;;;;;;;;;12.70;93.80;;;;;;5113383;28;19908;-76
2023/12/07 12:20:26;;;;;;;;;;;12.60;93.80;;;;;;5113259;28;19912;-75
2023/12/07 12:22:54;;;;;;;;;;;12.60;93.80;;;;;;5094304;28;20014;-74
2023/12/07 12:25:21;;;;;;;;;;;12.60;93.80;;;;;;5113213;28;19920;-75
2023/12/07 12:27:47;;;;;;;;;;;12.70;93.90;;;;;;5094963;28;20015;-74
2023/12/07 12:30:13;;;;;;;;;;;12.70;93.80;;;;;;5094476;28;19947;-73
2023/12/07 12:32:45;;;;;;;;;;;12.70;93.80;;;;;;5094342;28;19954;-72
2023/12/07 12:35:11;;;;;;;;;;;12.70;93.90;;;;;;5094985;28;20375;-72
2023/12/07 12:37:48;;;;;;;;;;;12.80;93.90;;;;;;5113404;28;20027;-76
2023/12/07 12:40:15;;;;;;;;;;;12.70;93.80;;;;;;5114853;28;19903;-75
2023/12/07 12:42:51;;;;;;;;;;;12.70;93.80;;;;;;5097925;28;19977;-74
2023/12/07 12:45:18;;;;;;;;;;;12.80;93.90;;;;;;5096641;28;19961;-77
2023/12/07 12:47:44;;;;;;;;;;;12.80;93.90;;;;;;5091917;28;19961;-75
2023/12/07 12:50:11;;;;;;;;;;;12.90;93.90;;;;;;5098488;28;20301;-75
2023/12/07 12:52:39;;;;;;;;;;;12.90;93.90;;;;;;5115946;28;19908;-76
2023/12/07 12:55:09;;;;;;;;;;;13.00;93.90;;;;;;5116112;28;20249;-75
2023/12/07 12:57:36;;;;;;;;;;;13.00;93.80;;;;;;5097259;28;19908;-75
2023/12/07 13:00:02;;;;;;;;;;;13.00;93.80;;;;;;5116409;28;20268;-76
2023/12/07 13:02:28;;;;;;;;;;;13.10;93.80;;;;;;5115737;28;20404;-75
2023/12/07 13:04:55;;;;;;;;;;;13.10;93.80;;;;;;5097650;28;20414;-76
2023/12/07 13:07:21;;;;;;;;;;;13.10;93.80;;;;;;5115517;28;19912;-76
2023/12/07 13:09:47;;;;;;;;;;;13.10;93.80;;;;;;5097430;28;19942;-76
2023/12/07 13:12:12;;;;;;;;;;;13.10;93.70;;;;;;5089185;28;19912;-76
2023/12/07 13:14:39;;;;;;;;;;;13.10;93.70;;;;;;5091266;28;19919;-76
2023/12/07 13:17:07;;;;;;;;;;;13.00;93.70;;;;;;5080983;28;20626;-76
2023/12/07 13:19:33;;;;;;;;;;;13.00;93.70;;;;;;5109087;28;20364;-76
2023/12/07 13:21:58;;;;;;;;;;;12.90;93.70;;;;;;5092307;28;19911;-76
2023/12/07 13:24:24;;;;;;;;;;;12.90;93.70;;;;;;5091936;28;19910;-76
2023/12/07 13:26:49;;;;;;;;;;;12.80;93.70;;;;;;5116070;28;19919;-73
2023/12/07 13:29:15;;;;;;;;;;;12.80;93.70;;;;;;5105714;28;20274;-76
2023/12/07 13:31:40;;;;;;;;;;;12.70;93.70;;;;;;5094801;28;19915;-76
2023/12/07 13:34:06;;;;;;;;;;;12.60;93.70;;;;;;5076542;28;19911;-75
2023/12/07 13:36:33;;;;;;;;;;;12.60;93.70;;;;;;5098018;28;20002;-75
2023/12/07 13:39:02;;;;;;;;;;;12.50;93.70;;;;;;5115617;28;19908;-76
2023/12/07 13:41:28;;;;;;;;;;;12.50;93.80;;;;;;5116103;28;19904;-74
2023/12/07 13:43:53;;;;;;;;;;;12.50;93.80;;;;;;5115831;28;19919;-72
2023/12/07 13:46:19;;;;;;;;;;;12.40;93.70;;;;;;5115831;28;20244;-77
2023/12/07 13:48:45;;;;;;;;;;;12.40;93.70;;;;;;5115925;28;19939;-75
2023/12/07 13:51:10;;;;;;;;;;;12.30;93.70;;;;;;5115180;28;19907;-73
2023/12/07 13:53:37;;;;;;;;;;;12.30;93.70;;;;;;5098060;28;19907;-75
2023/12/07 13:56:04;;;;;;;;;;;12.30;93.70;;;;;;5097654;28;19949;-77
2023/12/07 13:58:30;;;;;;;;;;;12.20;93.70;;;;;;5115665;28;19908;-77
2023/12/07 14:00:55;;;;;;;;;;;12.20;93.70;;;;;;5097314;28;19930;-77
2023/12/07 14:03:21;;;;;;;;;;;12.10;93.70;;;;;;5115939;28;19996;-77
2023/12/07 14:05:47;;;;;;;;;;;12.10;93.70;;;;;;5115831;28;19911;-77
2023/12/07 14:08:13;;;;;;;;;;;12.10;93.70;;;;;;5096846;28;19938;-76
2023/12/07 14:10:38;;;;;;;;;;;12.10;93.70;;;;;;5112645;28;19943;-77